Time;durP1;ratioP1;P1;durP2;ratioP2;P2;SDS_P1;SDS_P2;PMS_P1;PMS_P2;Temp;Humidity;BMP_temperature;BMP_pressure;BME280_temperature;BME280_humidity;BME280_pressure;Samples;Min_cycle;Max_cycle;Signal;HPM_P1;HPM_P2
2023/10/08 00:01:50;;;;;;;14.07;5.25;;;;;;;;;;4991205;28;20534;-67
2023/10/08 00:04:18;;;;;;;13.35;4.65;;;;;;;;;;4992565;28;20294;-67
2023/10/08 00:06:45;;;;;;;15.70;4.82;;;;;;;;;;4990319;28;20175;-67
2023/10/08 00:09:11;;;;;;;12.63;4.97;;;;;;;;;;4989635;28;20183;-66
2023/10/08 00:11:36;;;;;;;16.35;5.38;;;;;;;;;;4989048;28;20168;-66
2023/10/08 00:14:04;;;;;;;19.27;5.80;;;;;;;;;;4990925;28;20291;-67
2023/10/08 00:16:33;;;;;;;23.52;5.97;;;;;;;;;;4989675;28;20188;-66
2023/10/08 00:18:59;;;;;;;22.90;6.05;;;;;;;;;;4989091;28;20183;-67
2023/10/08 00:21:27;;;;;;;20.90;6.80;;;;;;;;;;4984938;28;20183;-66
2023/10/08 00:23:55;;;;;;;13.07;4.88;;;;;;;;;;4992293;28;20720;-66
2023/10/08 00:26:27;;;;;;;15.70;5.28;;;;;;;;;;4993204;28;20188;-66
2023/10/08 00:28:52;;;;;;;18.35;5.45;;;;;;;;;;4992646;28;20175;-66
2023/10/08 00:31:17;;;;;;;20.80;6.57;;;;;;;;;;4994165;28;20545;-66
2023/10/08 00:33:44;;;;;;;14.73;5.93;;;;;;;;;;4994693;28;20192;-66
2023/10/08 00:36:21;;;;;;;24.70;7.25;;;;;;;;;;4992384;28;20183;-66
2023/10/08 00:38:51;;;;;;;18.73;5.60;;;;;;;;;;4994491;28;20194;-66
2023/10/08 00:41:21;;;;;;;24.13;7.53;;;;;;;;;;4994375;28;20730;-67
2023/10/08 00:43:47;;;;;;;15.13;5.65;;;;;;;;;;4994684;28;20192;-67
2023/10/08 00:46:27;;;;;;;17.25;5.10;;;;;;;;;;4994577;28;20168;-67
2023/10/08 00:48:56;;;;;;;16.95;6.40;;;;;;;;;;4994701;28;20194;-67
2023/10/08 00:54:06;;;;;;;18.08;6.63;;;;;;;;;;4993963;28;20210;-67
2023/10/08 00:59:23;;;;;;;13.48;5.72;;;;;;;;;;4992101;28;20381;-68
2023/10/08 01:01:52;;;;;;;13.95;6.18;;;;;;;;;;4993977;28;20726;-67
2023/10/08 01:04:17;;;;;;;16.55;5.18;;;;;;;;;;4993804;28;20599;-67
2023/10/08 01:06:42;;;;;;;20.67;6.28;;;;;;;;;;4993057;28;20176;-67
2023/10/08 01:09:31;;;;;;;15.23;5.00;;;;;;;;;;4991267;28;20663;-67
2023/10/08 01:12:18;;;;;;;15.63;6.03;;;;;;;;;;4994585;28;20176;-66
2023/10/08 01:14:43;;;;;;;13.52;5.75;;;;;;;;;;4997188;28;20203;-66
2023/10/08 01:17:09;;;;;;;23.73;6.60;;;;;;;;;;4994613;28;20188;-67
2023/10/08 01:19:40;;;;;;;16.42;4.40;;;;;;;;;;4992617;28;20180;-67
2023/10/08 01:22:07;;;;;;;16.85;5.82;;;;;;;;;;4989170;28;20234;-67
2023/10/08 01:24:34;;;;;;;20.38;5.93;;;;;;;;;;4993321;28;20717;-67
2023/10/08 01:27:00;;;;;;;20.90;5.88;;;;;;;;;;4990563;28;20180;-67
2023/10/08 01:29:28;;;;;;;20.73;5.65;;;;;;;;;;4987673;28;20763;-68
2023/10/08 01:31:53;;;;;;;16.05;4.82;;;;;;;;;;4992851;28;20183;-66
2023/10/08 01:34:18;;;;;;;18.98;5.53;;;;;;;;;;4991653;28;20211;-67
2023/10/08 01:36:44;;;;;;;14.45;5.22;;;;;;;;;;4987551;28;20179;-67
2023/10/08 01:39:15;;;;;;;11.07;4.20;;;;;;;;;;4993584;28;20226;-67
2023/10/08 01:41:41;;;;;;;12.35;6.20;;;;;;;;;;4988262;28;20195;-67
2023/10/08 01:44:08;;;;;;;17.15;6.25;;;;;;;;;;4990263;28;20227;-67
2023/10/08 01:46:34;;;;;;;12.13;4.95;;;;;;;;;;4991935;28;20819;-67
2023/10/08 01:49:13;;;;;;;16.15;5.25;;;;;;;;;;4988641;28;20206;-67
2023/10/08 01:51:39;;;;;;;12.50;5.13;;;;;;;;;;4992194;28;20176;-67
2023/10/08 01:54:11;;;;;;;13.50;5.47;;;;;;;;;;4992173;28;20286;-67
2023/10/08 01:56:43;;;;;;;15.50;6.30;;;;;;;;;;4990465;28;20570;-66
2023/10/08 01:59:09;;;;;;;15.10;5.78;;;;;;;;;;4991341;28;20596;-67
2023/10/08 02:01:35;;;;;;;13.05;5.25;;;;;;;;;;4990906;28;20561;-67
2023/10/08 02:04:00;;;;;;;8.30;4.75;;;;;;;;;;4993524;28;20214;-66
2023/10/08 02:06:25;;;;;;;18.90;6.50;;;;;;;;;;4986347;28;20711;-66
2023/10/08 02:08:51;;;;;;;10.18;5.45;;;;;;;;;;4991356;28;20268;-66
2023/10/08 02:11:16;;;;;;;21.45;5.97;;;;;;;;;;4992442;28;21128;-67
2023/10/08 02:13:42;;;;;;;21.90;6.85;;;;;;;;;;4992357;28;20235;-67
2023/10/08 02:16:07;;;;;;;12.82;5.38;;;;;;;;;;4992271;28;20222;-67
2023/10/08 02:18:32;;;;;;;15.15;6.15;;;;;;;;;;4990814;28;20249;-66
2023/10/08 02:20:58;;;;;;;17.42;6.25;;;;;;;;;;4989941;28;20286;-66
2023/10/08 02:23:24;;;;;;;11.77;6.38;;;;;;;;;;4991885;28;20230;-65
2023/10/08 02:25:49;;;;;;;18.08;6.40;;;;;;;;;;4989295;28;20273;-65
2023/10/08 02:28:20;;;;;;;17.60;6.13;;;;;;;;;;4983773;28;20243;-65
2023/10/08 02:30:46;;;;;;;12.20;5.72;;;;;;;;;;4990785;28;20254;-66
2023/10/08 02:33:15;;;;;;;17.55;6.32;;;;;;;;;;4990699;28;20290;-67
2023/10/08 02:35:44;;;;;;;13.68;5.20;;;;;;;;;;4987413;28;20183;-66
2023/10/08 02:38:13;;;;;;;11.35;6.50;;;;;;;;;;4990104;28;20191;-66
2023/10/08 02:40:44;;;;;;;19.63;6.30;;;;;;;;;;4990156;28;20184;-66
2023/10/08 02:43:11;;;;;;;13.25;5.40;;;;;;;;;;4991456;28;20283;-67
2023/10/08 02:45:38;;;;;;;19.05;7.03;;;;;;;;;;4989735;28;20706;-66
2023/10/08 02:48:11;;;;;;;21.58;7.05;;;;;;;;;;4990143;28;20172;-66
2023/10/08 02:50:37;;;;;;;12.30;5.97;;;;;;;;;;4987819;28;20185;-66
2023/10/08 02:53:10;;;;;;;16.80;6.93;;;;;;;;;;4989243;28;20381;-66
2023/10/08 02:55:36;;;;;;;19.77;6.72;;;;;;;;;;4989470;28;20180;-66
2023/10/08 02:58:04;;;;;;;15.68;6.85;;;;;;;;;;4990282;28;20179;-67
2023/10/08 03:00:29;;;;;;;20.42;6.15;;;;;;;;;;4991220;28;20571;-68
2023/10/08 03:03:01;;;;;;;13.15;6.32;;;;;;;;;;4990563;28;20183;-66
2023/10/08 03:05:30;;;;;;;16.30;6.40;;;;;;;;;;4989542;28;20621;-66
2023/10/08 03:07:57;;;;;;;14.68;5.95;;;;;;;;;;4986573;28;20587;-66
2023/10/08 03:10:22;;;;;;;14.10;6.05;;;;;;;;;;4989591;28;20237;-66
2023/10/08 03:12:49;;;;;;;13.80;7.00;;;;;;;;;;4990334;28;20184;-65
2023/10/08 03:18:09;;;;;;;17.90;6.53;;;;;;;;;;4982437;28;20732;-66
2023/10/08 03:20:38;;;;;;;19.85;6.78;;;;;;;;;;4987590;28;20191;-66
2023/10/08 03:23:12;;;;;;;12.40;5.88;;;;;;;;;;4983855;28;20181;-65
2023/10/08 03:25:41;;;;;;;19.92;7.03;;;;;;;;;;4989558;28;20214;-66
2023/10/08 03:28:12;;;;;;;20.08;6.75;;;;;;;;;;4991738;28;20172;-66
2023/10/08 03:30:48;;;;;;;14.98;7.40;;;;;;;;;;4990525;28;20179;-67
2023/10/08 03:33:21;;;;;;;17.40;6.38;;;;;;;;;;4989998;28;20218;-66
2023/10/08 03:35:47;;;;;;;12.88;6.18;;;;;;;;;;4989293;28;20176;-65
2023/10/08 03:38:21;;;;;;;13.30;7.57;;;;;;;;;;4991489;28;20186;-65
2023/10/08 03:40:48;;;;;;;12.27;6.57;;;;;;;;;;4990757;28;20730;-67
2023/10/08 03:43:23;;;;;;;22.42;6.97;;;;;;;;;;4988879;28;20257;-65
2023/10/08 03:45:59;;;;;;;15.73;6.25;;;;;;;;;;4994398;28;20215;-66
2023/10/08 03:48:25;;;;;;;17.00;7.55;;;;;;;;;;4992114;28;20714;-66
2023/10/08 03:51:00;;;;;;;22.00;8.15;;;;;;;;;;4990265;28;20279;-66
2023/10/08 03:53:25;;;;;;;17.20;7.78;;;;;;;;;;4985976;28;20265;-67
2023/10/08 03:55:52;;;;;;;19.17;7.40;;;;;;;;;;4988742;28;20671;-66
2023/10/08 03:58:27;;;;;;;19.63;7.85;;;;;;;;;;4989379;28;20607;-65
2023/10/08 04:01:06;;;;;;;15.38;7.65;;;;;;;;;;4989126;28;20183;-66
2023/10/08 04:03:51;;;;;;;18.67;7.50;;;;;;;;;;4989775;28;20206;-65
2023/10/08 04:06:22;;;;;;;13.32;7.13;;;;;;;;;;4986497;28;20654;-66
2023/10/08 04:09:00;;;;;;;14.77;6.93;;;;;;;;;;4993936;28;20253;-66
2023/10/08 04:11:35;;;;;;;14.52;8.38;;;;;;;;;;4989260;28;20179;-66
2023/10/08 04:14:02;;;;;;;17.98;7.03;;;;;;;;;;4988292;28;20266;-64
2023/10/08 04:16:27;;;;;;;9.88;6.55;;;;;;;;;;5005810;28;20234;-65
2023/10/08 04:18:55;;;;;;;15.75;7.05;;;;;;;;;;4987201;28;20207;-66
2023/10/08 04:21:21;;;;;;;14.68;6.95;;;;;;;;;;4985714;28;20183;-67
2023/10/08 04:23:52;;;;;;;14.90;6.95;;;;;;;;;;4989359;28;20223;-66
2023/10/08 04:26:23;;;;;;;16.00;7.10;;;;;;;;;;4988381;28;20199;-66
2023/10/08 04:28:49;;;;;;;17.65;6.47;;;;;;;;;;4990526;28;20191;-67
2023/10/08 04:31:14;;;;;;;18.02;6.97;;;;;;;;;;4989494;28;20180;-67
2023/10/08 04:33:41;;;;;;;15.68;7.85;;;;;;;;;;4989231;28;20210;-66
2023/10/08 04:36:07;;;;;;;15.45;7.15;;;;;;;;;;4987030;28;20206;-66
2023/10/08 04:38:39;;;;;;;13.77;6.90;;;;;;;;;;4987410;28;20176;-66
2023/10/08 04:41:08;;;;;;;16.35;8.07;;;;;;;;;;4992019;28;20730;-66
2023/10/08 04:43:37;;;;;;;13.48;7.38;;;;;;;;;;4986704;28;20683;-66
2023/10/08 04:46:19;;;;;;;14.85;7.75;;;;;;;;;;4987282;28;20275;-66
2023/10/08 04:48:44;;;;;;;21.17;8.38;;;;;;;;;;4985313;28;20936;-66
2023/10/08 04:51:12;;;;;;;21.83;7.68;;;;;;;;;;4987864;28;20730;-66
2023/10/08 04:53:40;;;;;;;21.98;8.85;;;;;;;;;;4987781;28;20703;-65
2023/10/08 04:56:18;;;;;;;20.35;9.35;;;;;;;;;;4988923;28;20211;-65
2023/10/08 04:58:47;;;;;;;23.92;9.48;;;;;;;;;;4990045;28;20186;-65
2023/10/08 05:01:38;;;;;;;22.40;9.30;;;;;;;;;;4987387;28;20717;-65
2023/10/08 05:08:58;;;;;;;18.90;9.43;;;;;;;;;;4990879;28;20194;-66
2023/10/08 05:14:16;;;;;;;19.98;9.15;;;;;;;;;;4991856;28;20277;-66
2023/10/08 05:17:00;;;;;;;14.68;8.75;;;;;;;;;;4989350;28;20188;-66
2023/10/08 05:19:47;;;;;;;17.48;7.85;;;;;;;;;;4990690;28;20179;-66
2023/10/08 05:22:18;;;;;;;16.25;7.60;;;;;;;;;;4990036;28;20183;-66
2023/10/08 05:27:38;;;;;;;16.83;6.68;;;;;;;;;;4994341;28;20179;-67
2023/10/08 05:30:16;;;;;;;27.80;9.35;;;;;;;;;;4986029;28;20168;-66
2023/10/08 05:33:05;;;;;;;16.55;7.60;;;;;;;;;;5004023;28;20270;-67
2023/10/08 05:35:38;;;;;;;20.88;7.72;;;;;;;;;;4990979;28;20681;-66
2023/10/08 05:38:13;;;;;;;15.57;7.80;;;;;;;;;;4991138;28;20187;-65
2023/10/08 05:41:04;;;;;;;24.67;10.48;;;;;;;;;;4992209;28;20551;-65
2023/10/08 06:03:09;;;;;;;24.30;8.23;;;;;;;;;;4989609;28;20202;-65
2023/10/08 06:07:48;;;;;;;20.58;8.00;;;;;;;;;;4991590;28;20203;-66
2023/10/08 06:18:25;;;;;;;23.48;7.55;;;;;;;;;;4991106;28;20183;-66
2023/10/08 06:20:54;;;;;;;30.65;7.55;;;;;;;;;;4988168;28;20238;-66
2023/10/08 06:23:20;;;;;;;20.77;6.50;;;;;;;;;;4991522;28;20210;-66
2023/10/08 06:25:46;;;;;;;17.95;4.85;;;;;;;;;;4990465;28;20204;-66
2023/10/08 06:28:15;;;;;;;15.65;4.30;;;;;;;;;;4989772;28;20184;-66
2023/10/08 06:30:41;;;;;;;17.30;4.55;;;;;;;;;;4990226;28;20847;-66
2023/10/08 06:33:09;;;;;;;12.93;4.07;;;;;;;;;;4989745;28;20263;-66
2023/10/08 06:35:35;;;;;;;16.40;4.93;;;;;;;;;;4990454;28;20202;-65
2023/10/08 06:38:07;;;;;;;8.02;3.90;;;;;;;;;;4991814;28;20650;-65
2023/10/08 06:43:11;;;;;;;11.10;4.10;;;;;;;;;;4992100;28;20179;-65
2023/10/08 06:45:36;;;;;;;11.65;4.20;;;;;;;;;;4986134;28;20231;-65
2023/10/08 06:48:06;;;;;;;18.42;5.47;;;;;;;;;;4987578;28;20206;-66
2023/10/08 06:50:31;;;;;;;16.27;6.00;;;;;;;;;;4989792;28;20234;-67
2023/10/08 06:52:56;;;;;;;13.88;5.50;;;;;;;;;;4991294;28;20171;-67
2023/10/08 06:55:24;;;;;;;12.55;6.25;;;;;;;;;;4989132;28;20191;-66
2023/10/08 06:57:49;;;;;;;17.05;6.38;;;;;;;;;;4992236;28;20211;-65
2023/10/08 07:00:37;;;;;;;18.33;4.38;;;;;;;;;;4989502;28;20238;-65
2023/10/08 07:03:01;;;;;;;20.75;5.03;;;;;;;;;;4991496;28;20683;-66
2023/10/08 07:05:28;;;;;;;12.63;5.85;;;;;;;;;;4989331;28;20214;-65
2023/10/08 07:07:54;;;;;;;14.82;5.18;;;;;;;;;;4989461;28;20184;-66
2023/10/08 07:10:19;;;;;;;18.50;4.70;;;;;;;;;;4991200;28;20242;-66
2023/10/08 07:12:46;;;;;;;15.43;5.15;;;;;;;;;;4993191;28;20254;-66
2023/10/08 07:15:13;;;;;;;10.75;2.97;;;;;;;;;;4988433;28;20651;-65
2023/10/08 07:17:40;;;;;;;8.70;2.83;;;;;;;;;;4989705;28;20266;-66
2023/10/08 07:20:13;;;;;;;8.00;2.80;;;;;;;;;;4989975;28;20190;-65
2023/10/08 07:22:39;;;;;;;7.78;2.78;;;;;;;;;;4990106;28;21345;-66
2023/10/08 07:25:08;;;;;;;11.00;2.33;;;;;;;;;;4990258;28;20215;-65
2023/10/08 07:27:37;;;;;;;5.97;2.15;;;;;;;;;;4987660;28;20180;-66
2023/10/08 07:30:10;;;;;;;9.10;2.45;;;;;;;;;;4988549;28;20175;-66
2023/10/08 07:32:38;;;;;;;8.10;1.83;;;;;;;;;;4989047;28;20266;-66
2023/10/08 07:37:58;;;;;;;9.40;2.42;;;;;;;;;;4986248;28;20191;-67
2023/10/08 07:40:29;;;;;;;8.38;2.22;;;;;;;;;;4993274;28;20207;-66
2023/10/08 07:42:54;;;;;;;6.72;1.90;;;;;;;;;;4990927;28;20226;-67
2023/10/08 07:45:21;;;;;;;9.52;2.53;;;;;;;;;;4995497;28;20246;-67
2023/10/08 07:47:47;;;;;;;8.80;2.00;;;;;;;;;;4986921;28;20638;-67
2023/10/08 07:50:13;;;;;;;4.75;1.65;;;;;;;;;;4988182;28;20539;-66
2023/10/08 07:52:38;;;;;;;7.55;2.28;;;;;;;;;;4988419;28;20227;-65
2023/10/08 07:55:07;;;;;;;5.43;1.98;;;;;;;;;;4992129;28;20286;-65
2023/10/08 07:57:33;;;;;;;11.18;2.47;;;;;;;;;;4990526;28;20253;-65
2023/10/08 08:00:18;;;;;;;5.90;2.20;;;;;;;;;;4990578;28;20183;-65
2023/10/08 08:02:43;;;;;;;9.40;2.10;;;;;;;;;;4987632;28;20187;-66
2023/10/08 08:05:08;;;;;;;6.85;2.13;;;;;;;;;;4987154;28;20222;-65
2023/10/08 08:07:33;;;;;;;12.48;2.42;;;;;;;;;;4994473;28;20185;-67
2023/10/08 08:09:59;;;;;;;6.28;2.05;;;;;;;;;;4989877;28;20183;-67
2023/10/08 08:12:28;;;;;;;8.48;2.83;;;;;;;;;;4990224;28;20180;-65
2023/10/08 08:14:54;;;;;;;4.75;2.45;;;;;;;;;;4988272;28;20655;-66
2023/10/08 08:17:19;;;;;;;12.60;2.50;;;;;;;;;;4988073;28;20258;-66
2023/10/08 08:19:49;;;;;;;10.45;2.30;;;;;;;;;;4988570;28;20180;-65
2023/10/08 08:22:30;;;;;;;4.15;1.77;;;;;;;;;;4987410;28;20176;-66
2023/10/08 08:25:05;;;;;;;8.35;1.80;;;;;;;;;;5001422;23;20718;-69
2023/10/08 08:27:33;;;;;;;4.55;1.90;;;;;;;;;;4994236;28;20211;-66
2023/10/08 08:30:09;;;;;;;6.18;2.10;;;;;;;;;;4991890;28;20183;-67
2023/10/08 08:32:35;;;;;;;4.80;1.88;;;;;;;;;;4991478;28;20179;-67
2023/10/08 08:35:00;;;;;;;6.82;2.65;;;;;;;;;;4987108;28;20258;-68
2023/10/08 08:37:29;;;;;;;7.18;2.90;;;;;;;;;;4985764;28;20180;-68
2023/10/08 08:39:57;;;;;;;9.70;3.30;;;;;;;;;;4980478;28;20628;-68
2023/10/08 08:42:23;;;;;;;6.93;2.20;;;;;;;;;;4988057;28;20635;-67
2023/10/08 08:44:50;;;;;;;8.20;2.95;;;;;;;;;;4991405;28;20227;-67
2023/10/08 08:47:17;;;;;;;5.97;3.15;;;;;;;;;;4993140;28;20183;-68
2023/10/08 08:49:43;;;;;;;8.88;2.80;;;;;;;;;;4991474;28;20188;-68
2023/10/08 08:52:08;;;;;;;8.93;2.72;;;;;;;;;;4991779;28;20192;-67
2023/10/08 08:54:36;;;;;;;7.32;2.65;;;;;;;;;;4989954;28;20195;-67
2023/10/08 08:57:04;;;;;;;8.45;2.60;;;;;;;;;;4988872;28;20627;-68
2023/10/08 08:59:30;;;;;;;9.18;3.38;;;;;;;;;;4987334;28;20620;-67
2023/10/08 09:01:57;;;;;;;8.55;2.83;;;;;;;;;;4992495;28;20188;-67
2023/10/08 09:04:30;;;;;;;9.93;2.75;;;;;;;;;;4989904;28;20207;-67
2023/10/08 09:06:55;;;;;;;9.68;3.15;;;;;;;;;;4985811;28;20663;-68
2023/10/08 09:09:24;;;;;;;8.10;2.90;;;;;;;;;;4985374;28;20245;-67
2023/10/08 09:11:52;;;;;;;4.68;2.35;;;;;;;;;;4990912;28;20569;-68
2023/10/08 09:14:25;;;;;;;6.53;2.38;;;;;;;;;;4989343;28;20285;-67
2023/10/08 09:16:50;;;;;;;10.20;2.85;;;;;;;;;;4987714;28;20198;-67
2023/10/08 09:19:18;;;;;;;5.68;2.75;;;;;;;;;;4992383;28;20183;-68
2023/10/08 09:22:04;;;;;;;7.13;2.97;;;;;;;;;;4988560;28;20227;-68
2023/10/08 09:24:33;;;;;;;15.88;3.22;;;;;;;;;;4989466;28;20223;-68
2023/10/08 09:26:59;;;;;;;5.20;2.55;;;;;;;;;;4990660;28;20180;-67
2023/10/08 09:29:26;;;;;;;7.57;3.25;;;;;;;;;;4987622;28;20196;-67
2023/10/08 09:31:58;;;;;;;7.38;2.95;;;;;;;;;;4988474;28;20685;-67
2023/10/08 09:34:30;;;;;;;7.95;2.75;;;;;;;;;;4991801;28;20574;-67
2023/10/08 09:36:56;;;;;;;6.50;2.72;;;;;;;;;;4989550;28;20198;-67
2023/10/08 09:39:25;;;;;;;4.72;2.13;;;;;;;;;;4990426;28;20183;-67
2023/10/08 09:41:52;;;;;;;4.72;2.58;;;;;;;;;;4989720;28;20180;-67
2023/10/08 09:44:18;;;;;;;7.47;2.97;;;;;;;;;;4992204;28;20227;-67
2023/10/08 09:46:47;;;;;;;4.38;2.97;;;;;;;;;;4990090;28;20211;-66
2023/10/08 09:49:12;;;;;;;5.53;2.00;;;;;;;;;;4990334;28;20673;-67
2023/10/08 09:51:39;;;;;;;4.47;2.45;;;;;;;;;;4983345;28;20211;-66
2023/10/08 09:54:15;;;;;;;10.27;2.53;;;;;;;;;;4987526;28;20206;-67
2023/10/08 09:56:40;;;;;;;6.18;1.90;;;;;;;;;;4987143;28;20183;-66
2023/10/08 09:59:08;;;;;;;5.88;3.05;;;;;;;;;;4991141;28;20611;-68
2023/10/08 10:01:34;;;;;;;2.83;1.83;;;;;;;;;;4989532;28;20175;-67
2023/10/08 10:04:00;;;;;;;7.60;2.88;;;;;;;;;;4986799;28;20192;-67
2023/10/08 10:06:26;;;;;;;5.30;1.95;;;;;;;;;;4987847;28;20259;-67
2023/10/08 10:08:52;;;;;;;3.45;2.25;;;;;;;;;;4985525;28;20266;-67
2023/10/08 10:11:17;;;;;;;7.10;2.65;;;;;;;;;;4986491;28;20263;-68
2023/10/08 10:13:47;;;;;;;4.88;2.15;;;;;;;;;;4989287;28;20661;-68
2023/10/08 10:16:13;;;;;;;3.67;1.88;;;;;;;;;;4989851;28;20187;-68
2023/10/08 10:18:39;;;;;;;4.70;2.33;;;;;;;;;;4990831;28;20179;-68
2023/10/08 10:21:13;;;;;;;4.43;2.55;;;;;;;;;;4989553;28;20187;-68
2023/10/08 10:23:44;;;;;;;5.95;2.65;;;;;;;;;;4985214;28;20240;-68
2023/10/08 10:26:28;;;;;;;5.93;2.85;;;;;;;;;;4989206;28;20753;-68
2023/10/08 10:29:14;;;;;;;4.70;2.60;;;;;;;;;;4987535;28;20231;-65
2023/10/08 10:31:53;;;;;;;3.58;2.30;;;;;;;;;;4991960;28;20663;-67
2023/10/08 10:34:19;;;;;;;7.75;3.10;;;;;;;;;;4992473;28;20238;-67
2023/10/08 10:36:48;;;;;;;8.80;3.08;;;;;;;;;;4986547;28;20193;-67
2023/10/08 10:39:25;;;;;;;7.55;2.78;;;;;;;;;;4989123;28;20178;-67
2023/10/08 10:41:51;;;;;;;6.15;2.80;;;;;;;;;;4987662;28;20195;-68
2023/10/08 10:44:16;;;;;;;7.07;3.15;;;;;;;;;;4986139;28;20211;-68
2023/10/08 10:46:42;;;;;;;8.95;3.10;;;;;;;;;;4988963;28;20235;-68
2023/10/08 10:49:31;;;;;;;9.10;3.40;;;;;;;;;;4989477;28;20214;-67
2023/10/08 10:51:59;;;;;;;4.57;2.78;;;;;;;;;;4989614;28;20176;-67
2023/10/08 10:54:25;;;;;;;6.05;3.03;;;;;;;;;;4989719;28;20195;-68
2023/10/08 10:57:04;;;;;;;7.30;3.45;;;;;;;;;;4989457;28;20190;-68
2023/10/08 10:59:36;;;;;;;7.13;2.95;;;;;;;;;;4989075;28;20185;-66
2023/10/08 11:02:08;;;;;;;7.40;3.30;;;;;;;;;;4991058;28;20192;-67
2023/10/08 11:04:45;;;;;;;5.75;3.50;;;;;;;;;;4987086;28;20203;-68
2023/10/08 11:07:12;;;;;;;7.10;3.30;;;;;;;;;;4995132;28;20186;-67
2023/10/08 11:09:44;;;;;;;9.70;3.75;;;;;;;;;;4991355;28;20195;-66
2023/10/08 11:12:12;;;;;;;5.95;3.65;;;;;;;;;;4988870;28;20156;-66
2023/10/08 11:14:46;;;;;;;6.75;3.83;;;;;;;;;;4986497;28;20690;-66
2023/10/08 11:17:37;;;;;;;7.15;4.32;;;;;;;;;;4988740;28;20186;-67
2023/10/08 11:20:07;;;;;;;5.20;3.97;;;;;;;;;;4986869;28;20191;-67
2023/10/08 11:22:44;;;;;;;8.70;4.10;;;;;;;;;;4988003;28;20187;-67
2023/10/08 11:25:22;;;;;;;8.27;3.78;;;;;;;;;;4986614;28;20353;-66
2023/10/08 11:27:48;;;;;;;5.65;3.80;;;;;;;;;;4981002;28;20184;-67
2023/10/08 11:30:17;;;;;;;10.70;4.40;;;;;;;;;;4990931;28;20263;-67
2023/10/08 11:32:48;;;;;;;6.65;3.72;;;;;;;;;;4983653;28;20184;-67
2023/10/08 11:35:18;;;;;;;5.38;3.53;;;;;;;;;;4988440;28;20204;-67
2023/10/08 11:37:50;;;;;;;8.10;4.13;;;;;;;;;;4987483;28;20207;-68
2023/10/08 11:40:28;;;;;;;5.28;3.72;;;;;;;;;;4991287;28;20186;-68
2023/10/08 11:42:58;;;;;;;5.55;3.20;;;;;;;;;;4986806;28;20210;-67
2023/10/08 11:45:25;;;;;;;5.55;3.50;;;;;;;;;;4989296;28;20225;-68
2023/10/08 11:47:56;;;;;;;4.25;2.88;;;;;;;;;;4990487;28;20649;-68
2023/10/08 11:50:30;;;;;;;4.18;3.22;;;;;;;;;;4986865;28;20172;-68
2023/10/08 11:53:08;;;;;;;5.70;3.25;;;;;;;;;;4986014;28;20269;-68
2023/10/08 11:55:38;;;;;;;4.32;3.03;;;;;;;;;;4986850;28;20238;-68
2023/10/08 11:58:10;;;;;;;8.73;2.80;;;;;;;;;;4987313;28;20171;-68
2023/10/08 12:00:45;;;;;;;3.90;2.47;;;;;;;;;;4983956;28;20210;-66
2023/10/08 12:03:11;;;;;;;5.45;2.80;;;;;;;;;;4985323;28;20330;-66
2023/10/08 12:05:38;;;;;;;5.45;2.20;;;;;;;;;;4983216;28;20295;-67
2023/10/08 12:08:08;;;;;;;3.58;2.10;;;;;;;;;;4982293;28;20182;-66
2023/10/08 12:10:34;;;;;;;5.40;2.15;;;;;;;;;;4983923;28;20186;-67
2023/10/08 12:12:59;;;;;;;5.88;2.35;;;;;;;;;;4982451;28;20803;-67
2023/10/08 12:15:34;;;;;;;8.40;2.67;;;;;;;;;;4985820;28;20218;-69
2023/10/08 12:18:08;;;;;;;19.10;3.53;;;;;;;;;;4993149;28;20222;-68
2023/10/08 12:20:37;;;;;;;3.53;2.08;;;;;;;;;;4986539;28;20175;-67
2023/10/08 12:23:02;;;;;;;2.97;1.73;;;;;;;;;;4985383;28;20195;-67
2023/10/08 12:25:27;;;;;;;7.03;1.95;;;;;;;;;;4988889;28;20210;-67
2023/10/08 12:27:53;;;;;;;4.40;2.20;;;;;;;;;;4989042;28;20203;-67
2023/10/08 12:30:18;;;;;;;5.63;2.50;;;;;;;;;;4993821;28;20180;-67
2023/10/08 12:32:46;;;;;;;7.65;2.33;;;;;;;;;;4990494;28;20434;-66
2023/10/08 12:35:14;;;;;;;7.88;2.38;;;;;;;;;;4988316;28;20696;-67
2023/10/08 12:37:39;;;;;;;4.90;2.25;;;;;;;;;;4992606;28;20206;-67
2023/10/08 12:40:21;;;;;;;2.97;2.15;;;;;;;;;;4991939;28;20663;-66
2023/10/08 12:42:48;;;;;;;4.78;2.83;;;;;;;;;;4990708;28;20246;-66
2023/10/08 12:45:13;;;;;;;4.82;2.03;;;;;;;;;;4986082;28;20207;-67
2023/10/08 12:47:38;;;;;;;4.30;1.77;;;;;;;;;;4994886;28;20253;-67
2023/10/08 12:50:07;;;;;;;3.50;1.85;;;;;;;;;;4993850;28;20175;-66
2023/10/08 12:52:34;;;;;;;5.20;2.38;;;;;;;;;;4991347;28;20226;-67
2023/10/08 12:55:03;;;;;;;5.22;2.35;;;;;;;;;;4989549;28;20206;-68
2023/10/08 12:57:32;;;;;;;5.45;2.80;;;;;;;;;;4992951;28;20270;-67
2023/10/08 12:59:59;;;;;;;4.50;3.05;;;;;;;;;;4993573;28;20176;-67
2023/10/08 13:02:28;;;;;;;5.85;2.40;;;;;;;;;;4992721;28;20172;-67
2023/10/08 13:04:54;;;;;;;4.05;2.10;;;;;;;;;;4993841;28;20210;-67
2023/10/08 13:07:21;;;;;;;7.28;2.42;;;;;;;;;;4991849;28;20234;-66
2023/10/08 13:09:46;;;;;;;4.57;1.95;;;;;;;;;;4992928;28;20590;-67
2023/10/08 13:12:14;;;;;;;4.57;2.22;;;;;;;;;;4993944;28;20233;-67
2023/10/08 13:14:39;;;;;;;5.13;2.20;;;;;;;;;;4989970;28;20577;-67
2023/10/08 13:17:10;;;;;;;7.32;2.75;;;;;;;;;;4992666;28;20191;-68
2023/10/08 13:19:35;;;;;;;7.38;2.53;;;;;;;;;;4991754;28;20659;-67
2023/10/08 13:22:01;;;;;;;5.78;2.40;;;;;;;;;;4993658;28;20298;-67
2023/10/08 13:24:28;;;;;;;6.43;2.47;;;;;;;;;;4992068;28;20301;-66
2023/10/08 13:26:53;;;;;;;4.75;2.10;;;;;;;;;;4993924;28;20167;-67
2023/10/08 13:29:18;;;;;;;2.70;1.88;;;;;;;;;;4990460;28;20172;-67
2023/10/08 13:31:45;;;;;;;5.00;2.47;;;;;;;;;;4990428;28;20241;-67
2023/10/08 13:34:12;;;;;;;4.90;2.50;;;;;;;;;;4988253;28;20206;-67
2023/10/08 13:36:37;;;;;;;7.20;2.20;;;;;;;;;;4990938;28;20673;-66
2023/10/08 13:39:03;;;;;;;6.55;2.38;;;;;;;;;;4989909;28;20180;-67
2023/10/08 13:41:29;;;;;;;4.95;2.08;;;;;;;;;;4993163;28;20175;-67
2023/10/08 13:44:05;;;;;;;6.65;2.75;;;;;;;;;;4985844;28;20201;-68
2023/10/08 13:46:31;;;;;;;5.07;3.00;;;;;;;;;;4993488;28;20187;-67
2023/10/08 13:48:57;;;;;;;6.35;2.60;;;;;;;;;;4990521;28;20574;-66
2023/10/08 13:51:26;;;;;;;6.72;2.80;;;;;;;;;;4993139;28;20255;-66
2023/10/08 13:53:59;;;;;;;5.32;2.92;;;;;;;;;;4995439;28;20199;-67
2023/10/08 13:56:26;;;;;;;5.93;2.70;;;;;;;;;;4991338;28;20179;-67
2023/10/08 13:58:56;;;;;;;4.65;2.40;;;;;;;;;;4988997;28;20187;-67
2023/10/08 14:01:21;;;;;;;6.28;2.90;;;;;;;;;;4991626;28;20216;-67
2023/10/08 14:03:53;;;;;;;4.57;3.28;;;;;;;;;;4989477;28;20239;-67
2023/10/08 14:06:19;;;;;;;5.78;3.40;;;;;;;;;;4988783;28;20203;-67
2023/10/08 14:08:51;;;;;;;9.73;4.28;;;;;;;;;;4987868;28;20184;-66
2023/10/08 14:11:18;;;;;;;6.55;3.17;;;;;;;;;;4994454;28;20184;-67
2023/10/08 14:13:43;;;;;;;5.38;3.33;;;;;;;;;;4992409;28;20269;-67
2023/10/08 14:16:11;;;;;;;4.20;2.87;;;;;;;;;;4988993;28;20651;-67
2023/10/08 14:18:42;;;;;;;3.55;2.88;;;;;;;;;;4991348;28;20429;-66
2023/10/08 14:21:11;;;;;;;7.65;3.45;;;;;;;;;;4991459;28;20186;-66
2023/10/08 14:23:39;;;;;;;7.40;3.40;;;;;;;;;;4991979;28;20227;-68
2023/10/08 14:26:06;;;;;;;6.03;2.90;;;;;;;;;;4987491;28;20207;-68
2023/10/08 14:28:43;;;;;;;5.13;2.70;;;;;;;;;;4989835;28;20180;-68
2023/10/08 14:31:15;;;;;;;5.70;3.22;;;;;;;;;;4992231;28;20199;-68
2023/10/08 14:33:55;;;;;;;6.47;3.08;;;;;;;;;;4988699;28;20254;-68
2023/10/08 14:44:34;;;;;;;5.75;3.03;;;;;;;;;;4987702;28;20225;-68
2023/10/08 14:46:59;;;;;;;5.05;2.90;;;;;;;;;;4992812;28;20179;-68
2023/10/08 14:49:25;;;;;;;12.50;3.25;;;;;;;;;;4990754;28;20180;-68
2023/10/08 14:51:53;;;;;;;5.28;2.88;;;;;;;;;;4991512;28;20303;-67
2023/10/08 14:54:18;;;;;;;10.93;3.20;;;;;;;;;;4989654;28;20318;-67
2023/10/08 14:56:43;;;;;;;4.38;2.70;;;;;;;;;;4988650;28;20644;-67
2023/10/08 14:59:08;;;;;;;6.18;3.53;;;;;;;;;;4992865;28;20636;-67
2023/10/08 15:01:34;;;;;;;6.10;3.40;;;;;;;;;;4991434;28;20168;-68
2023/10/08 15:04:04;;;;;;;7.80;3.92;;;;;;;;;;4988361;28;20203;-68
2023/10/08 15:06:30;;;;;;;8.57;3.35;;;;;;;;;;4991975;28;20604;-68
2023/10/08 15:08:55;;;;;;;8.15;3.53;;;;;;;;;;4985370;28;20172;-68
2023/10/08 15:11:21;;;;;;;15.50;3.95;;;;;;;;;;4993248;28;20230;-68
2023/10/08 15:13:46;;;;;;;8.15;4.00;;;;;;;;;;4990370;28;20262;-68
2023/10/08 15:16:13;;;;;;;4.25;2.88;;;;;;;;;;4990002;28;20175;-68
2023/10/08 15:18:42;;;;;;;5.47;2.83;;;;;;;;;;4987654;28;20188;-68
2023/10/08 15:21:07;;;;;;;8.38;3.47;;;;;;;;;;4989542;28;20179;-67
2023/10/08 15:23:33;;;;;;;7.95;3.45;;;;;;;;;;4987919;28;20199;-67
2023/10/08 15:25:58;;;;;;;7.63;3.10;;;;;;;;;;4988355;28;20207;-68
2023/10/08 15:28:23;;;;;;;5.00;3.13;;;;;;;;;;4991630;28;20186;-68
2023/10/08 15:30:49;;;;;;;5.50;3.40;;;;;;;;;;4983803;28;20188;-68
2023/10/08 15:33:14;;;;;;;12.60;3.53;;;;;;;;;;4990134;28;20179;-68
2023/10/08 15:35:40;;;;;;;5.57;3.03;;;;;;;;;;4985468;28;20877;-67
2023/10/08 15:38:05;;;;;;;6.13;3.38;;;;;;;;;;4991380;28;20187;-68
2023/10/08 15:40:33;;;;;;;5.53;3.03;;;;;;;;;;4988904;28;20176;-68
2023/10/08 15:42:58;;;;;;;7.80;3.47;;;;;;;;;;4988696;28;20613;-68
2023/10/08 15:45:24;;;;;;;4.18;2.25;;;;;;;;;;4986374;28;20238;-68
2023/10/08 15:47:50;;;;;;;5.20;3.03;;;;;;;;;;4989753;28;20270;-67
2023/10/08 15:50:15;;;;;;;6.70;3.53;;;;;;;;;;4988228;28;20309;-69